sensor_id;sensor_type;location;lat;lon;timestamp;P1;durP1;ratioP1;P2;durP2;ratioP2
75645;SDS011;64237;52.438;13.240;2023-02-15T00:00:40;24.90;;;9.63;;
75645;SDS011;64237;52.438;13.240;2023-02-15T00:03:06;25.05;;;8.38;;
75645;SDS011;64237;52.438;13.240;2023-02-15T00:05:31;22.38;;;8.40;;
75645;SDS011;64237;52.438;13.240;2023-02-15T00:07:56;21.57;;;8.70;;
75645;SDS011;64237;52.438;13.240;2023-02-15T00:10:22;28.88;;;10.00;;
75645;SDS011;64237;52.438;13.240;2023-02-15T00:12:48;22.13;;;8.65;;
75645;SDS011;64237;52.438;13.240;2023-02-15T00:15:13;23.73;;;8.75;;
75645;SDS011;64237;52.438;13.240;2023-02-15T00:17:39;25.67;;;9.20;;
75645;SDS011;64237;52.438;13.240;2023-02-15T00:20:04;26.58;;;9.18;;
75645;SDS011;64237;52.438;13.240;2023-02-15T00:22:30;26.35;;;9.70;;
75645;SDS011;64237;52.438;13.240;2023-02-15T00:24:55;25.87;;;9.57;;
75645;SDS011;64237;52.438;13.240;2023-02-15T00:27:21;25.70;;;9.65;;
75645;SDS011;64237;52.438;13.240;2023-02-15T00:29:46;29.27;;;10.23;;
75645;SDS011;64237;52.438;13.240;2023-02-15T00:32:12;24.90;;;9.45;;
75645;SDS011;64237;52.438;13.240;2023-02-15T00:34:38;27.25;;;10.35;;
75645;SDS011;64237;52.438;13.240;2023-02-15T00:37:03;27.88;;;10.48;;
75645;SDS011;64237;52.438;13.240;2023-02-15T00:39:28;24.90;;;10.00;;
75645;SDS011;64237;52.438;13.240;2023-02-15T00:41:54;27.70;;;10.32;;
75645;SDS011;64237;52.438;13.240;2023-02-15T00:44:19;23.37;;;9.00;;
75645;SDS011;64237;52.438;13.240;2023-02-15T00:46:44;24.73;;;9.80;;
75645;SDS011;64237;52.438;13.240;2023-02-15T00:49:10;28.38;;;10.18;;
75645;SDS011;64237;52.438;13.240;2023-02-15T00:51:35;24.90;;;9.60;;
75645;SDS011;64237;52.438;13.240;2023-02-15T00:54:01;29.48;;;9.88;;
75645;SDS011;64237;52.438;13.240;2023-02-15T00:56:26;25.92;;;8.80;;
75645;SDS011;64237;52.438;13.240;2023-02-15T00:58:53;21.05;;;8.20;;
75645;SDS011;64237;52.438;13.240;2023-02-15T01:01:19;23.98;;;9.23;;
75645;SDS011;64237;52.438;13.240;2023-02-15T01:03:45;27.88;;;9.82;;
75645;SDS011;64237;52.438;13.240;2023-02-15T01:06:12;26.60;;;9.38;;
75645;SDS011;64237;52.438;13.240;2023-02-15T01:08:39;26.65;;;8.90;;
75645;SDS011;64237;52.438;13.240;2023-02-15T01:11:05;25.38;;;8.77;;
75645;SDS011;64237;52.438;13.240;2023-02-15T01:13:32;25.38;;;9.25;;
75645;SDS011;64237;52.438;13.240;2023-02-15T01:15:57;24.67;;;8.52;;
75645;SDS011;64237;52.438;13.240;2023-02-15T01:18:23;27.50;;;9.63;;
75645;SDS011;64237;52.438;13.240;2023-02-15T01:20:49;25.73;;;9.63;;
75645;SDS011;64237;52.438;13.240;2023-02-15T01:23:14;24.23;;;8.95;;
75645;SDS011;64237;52.438;13.240;2023-02-15T01:25:41;26.20;;;8.88;;
75645;SDS011;64237;52.438;13.240;2023-02-15T01:28:06;25.55;;;9.50;;
75645;SDS011;64237;52.438;13.240;2023-02-15T01:30:32;24.40;;;8.63;;
75645;SDS011;64237;52.438;13.240;2023-02-15T01:32:58;25.65;;;9.75;;
75645;SDS011;64237;52.438;13.240;2023-02-15T01:35:25;23.52;;;8.55;;
75645;SDS011;64237;52.438;13.240;2023-02-15T01:37:51;22.10;;;9.32;;
75645;SDS011;64237;52.438;13.240;2023-02-15T01:40:17;23.15;;;8.55;;
75645;SDS011;64237;52.438;13.240;2023-02-15T01:42:43;26.63;;;9.45;;
75645;SDS011;64237;52.438;13.240;2023-02-15T01:45:25;23.40;;;9.52;;
75645;SDS011;64237;52.438;13.240;2023-02-15T01:48:00;26.55;;;9.05;;
75645;SDS011;64237;52.438;13.240;2023-02-15T01:50:30;23.92;;;8.43;;
75645;SDS011;64237;52.438;13.240;2023-02-15T01:55:46;23.23;;;8.15;;
75645;SDS011;64237;52.438;13.240;2023-02-15T01:58:15;26.13;;;8.90;;
75645;SDS011;64237;52.438;13.240;2023-02-15T02:00:41;27.77;;;9.80;;
75645;SDS011;64237;52.438;13.240;2023-02-15T02:03:07;25.27;;;8.40;;
75645;SDS011;64237;52.438;13.240;2023-02-15T02:05:33;22.35;;;8.82;;
75645;SDS011;64237;52.438;13.240;2023-02-15T02:07:59;25.58;;;8.77;;
75645;SDS011;64237;52.438;13.240;2023-02-15T02:10:26;23.77;;;9.13;;
75645;SDS011;64237;52.438;13.240;2023-02-15T02:12:55;23.58;;;8.73;;
75645;SDS011;64237;52.438;13.240;2023-02-15T02:24:30;25.08;;;7.60;;
75645;SDS011;64237;52.438;13.240;2023-02-15T02:27:29;28.90;;;9.73;;
75645;SDS011;64237;52.438;13.240;2023-02-15T02:30:04;27.88;;;10.05;;
75645;SDS011;64237;52.438;13.240;2023-02-15T02:41:36;31.63;;;9.82;;
75645;SDS011;64237;52.438;13.240;2023-02-15T02:44:25;26.23;;;9.13;;
75645;SDS011;64237;52.438;13.240;2023-02-15T02:46:52;29.10;;;9.80;;
75645;SDS011;64237;52.438;13.240;2023-02-15T02:49:36;36.38;;;11.38;;
75645;SDS011;64237;52.438;13.240;2023-02-15T02:52:31;36.90;;;10.02;;
75645;SDS011;64237;52.438;13.240;2023-02-15T02:55:13;29.33;;;9.52;;
75645;SDS011;64237;52.438;13.240;2023-02-15T02:57:46;31.90;;;10.00;;
75645;SDS011;64237;52.438;13.240;2023-02-15T03:00:18;27.27;;;9.55;;
75645;SDS011;64237;52.438;13.240;2023-02-15T03:02:53;26.13;;;8.73;;
75645;SDS011;64237;52.438;13.240;2023-02-15T03:05:30;26.52;;;8.98;;
75645;SDS011;64237;52.438;13.240;2023-02-15T03:07:57;27.58;;;10.07;;
75645;SDS011;64237;52.438;13.240;2023-02-15T03:10:30;24.55;;;8.43;;
75645;SDS011;64237;52.438;13.240;2023-02-15T03:12:58;24.58;;;9.07;;
75645;SDS011;64237;52.438;13.240;2023-02-15T03:15:25;29.13;;;10.45;;
75645;SDS011;64237;52.438;13.240;2023-02-15T03:18:14;32.92;;;10.35;;
75645;SDS011;64237;52.438;13.240;2023-02-15T03:20:45;29.20;;;10.75;;
75645;SDS011;64237;52.438;13.240;2023-02-15T03:23:16;29.27;;;10.13;;
75645;SDS011;64237;52.438;13.240;2023-02-15T03:25:50;25.80;;;9.88;;
75645;SDS011;64237;52.438;13.240;2023-02-15T03:28:23;33.85;;;11.00;;
75645;SDS011;64237;52.438;13.240;2023-02-15T03:30:55;36.10;;;12.23;;
75645;SDS011;64237;52.438;13.240;2023-02-15T03:33:24;35.15;;;11.23;;
75645;SDS011;64237;52.438;13.240;2023-02-15T03:38:39;28.83;;;10.65;;
75645;SDS011;64237;52.438;13.240;2023-02-15T03:41:12;37.03;;;11.93;;
75645;SDS011;64237;52.438;13.240;2023-02-15T03:46:21;49.38;;;14.55;;
75645;SDS011;64237;52.438;13.240;2023-02-15T03:48:52;50.35;;;15.10;;
75645;SDS011;64237;52.438;13.240;2023-02-15T03:51:22;50.03;;;15.13;;
75645;SDS011;64237;52.438;13.240;2023-02-15T03:54:03;55.05;;;16.85;;
75645;SDS011;64237;52.438;13.240;2023-02-15T03:56:33;53.38;;;17.10;;
75645;SDS011;64237;52.438;13.240;2023-02-15T03:59:00;55.40;;;16.38;;
75645;SDS011;64237;52.438;13.240;2023-02-15T04:01:49;53.20;;;16.48;;
75645;SDS011;64237;52.438;13.240;2023-02-15T04:04:32;45.67;;;15.75;;
75645;SDS011;64237;52.438;13.240;2023-02-15T04:07:00;51.58;;;15.15;;
75645;SDS011;64237;52.438;13.240;2023-02-15T04:09:28;43.28;;;13.88;;
75645;SDS011;64237;52.438;13.240;2023-02-15T04:12:12;42.72;;;14.52;;
75645;SDS011;64237;52.438;13.240;2023-02-15T04:14:37;42.03;;;14.05;;
75645;SDS011;64237;52.438;13.240;2023-02-15T04:17:21;49.80;;;14.18;;
75645;SDS011;64237;52.438;13.240;2023-02-15T04:19:46;40.03;;;14.05;;
75645;SDS011;64237;52.438;13.240;2023-02-15T04:22:30;42.35;;;13.40;;
75645;SDS011;64237;52.438;13.240;2023-02-15T04:25:14;38.83;;;13.10;;
75645;SDS011;64237;52.438;13.240;2023-02-15T04:27:50;38.33;;;12.80;;
75645;SDS011;64237;52.438;13.240;2023-02-15T04:30:18;39.22;;;12.65;;
75645;SDS011;64237;52.438;13.240;2023-02-15T04:32:45;37.58;;;12.27;;
75645;SDS011;64237;52.438;13.240;2023-02-15T04:35:11;48.17;;;14.25;;
75645;SDS011;64237;52.438;13.240;2023-02-15T04:37:37;41.97;;;13.10;;
75645;SDS011;64237;52.438;13.240;2023-02-15T04:40:04;40.05;;;13.68;;
75645;SDS011;64237;52.438;13.240;2023-02-15T04:42:30;39.63;;;13.70;;
75645;SDS011;64237;52.438;13.240;2023-02-15T04:44:56;42.28;;;15.18;;
75645;SDS011;64237;52.438;13.240;2023-02-15T04:47:22;41.22;;;13.30;;
75645;SDS011;64237;52.438;13.240;2023-02-15T04:49:47;41.08;;;13.68;;
75645;SDS011;64237;52.438;13.240;2023-02-15T04:52:12;45.58;;;14.82;;
75645;SDS011;64237;52.438;13.240;2023-02-15T04:54:38;45.90;;;12.55;;
75645;SDS011;64237;52.438;13.240;2023-02-15T04:57:04;40.67;;;13.30;;
75645;SDS011;64237;52.438;13.240;2023-02-15T04:59:30;42.25;;;13.88;;
75645;SDS011;64237;52.438;13.240;2023-02-15T05:01:55;43.35;;;14.18;;
75645;SDS011;64237;52.438;13.240;2023-02-15T05:04:21;40.67;;;13.82;;
75645;SDS011;64237;52.438;13.240;2023-02-15T05:06:46;39.17;;;12.57;;
75645;SDS011;64237;52.438;13.240;2023-02-15T05:09:12;37.43;;;12.27;;
75645;SDS011;64237;52.438;13.240;2023-02-15T05:11:37;42.33;;;14.00;;
75645;SDS011;64237;52.438;13.240;2023-02-15T05:14:02;41.22;;;14.07;;
75645;SDS011;64237;52.438;13.240;2023-02-15T05:16:28;45.67;;;13.65;;
75645;SDS011;64237;52.438;13.240;2023-02-15T05:18:53;44.25;;;14.32;;
75645;SDS011;64237;52.438;13.240;2023-02-15T05:21:19;43.83;;;13.93;;
75645;SDS011;64237;52.438;13.240;2023-02-15T05:23:44;42.42;;;13.45;;
75645;SDS011;64237;52.438;13.240;2023-02-15T05:26:16;42.13;;;13.48;;
75645;SDS011;64237;52.438;13.240;2023-02-15T05:29:05;41.78;;;13.57;;
75645;SDS011;64237;52.438;13.240;2023-02-15T05:31:32;47.95;;;14.68;;
75645;SDS011;64237;52.438;13.240;2023-02-15T05:33:57;41.42;;;13.95;;
75645;SDS011;64237;52.438;13.240;2023-02-15T05:36:23;50.80;;;14.73;;
75645;SDS011;64237;52.438;13.240;2023-02-15T05:38:48;47.38;;;13.35;;
75645;SDS011;64237;52.438;13.240;2023-02-15T05:41:14;44.90;;;13.27;;
75645;SDS011;64237;52.438;13.240;2023-02-15T05:43:39;42.38;;;12.35;;
75645;SDS011;64237;52.438;13.240;2023-02-15T05:46:05;42.78;;;13.60;;
75645;SDS011;64237;52.438;13.240;2023-02-15T05:48:31;44.60;;;13.63;;
75645;SDS011;64237;52.438;13.240;2023-02-15T05:50:57;36.38;;;12.68;;
75645;SDS011;64237;52.438;13.240;2023-02-15T05:53:24;38.97;;;12.15;;
75645;SDS011;64237;52.438;13.240;2023-02-15T05:55:50;49.58;;;14.07;;
75645;SDS011;64237;52.438;13.240;2023-02-15T05:58:15;42.17;;;12.47;;
75645;SDS011;64237;52.438;13.240;2023-02-15T06:00:40;46.53;;;14.65;;
75645;SDS011;64237;52.438;13.240;2023-02-15T06:03:06;42.35;;;13.52;;
75645;SDS011;64237;52.438;13.240;2023-02-15T06:05:31;38.63;;;12.80;;
75645;SDS011;64237;52.438;13.240;2023-02-15T06:07:56;45.45;;;13.13;;
75645;SDS011;64237;52.438;13.240;2023-02-15T06:10:21;37.30;;;11.77;;
75645;SDS011;64237;52.438;13.240;2023-02-15T06:12:47;40.20;;;12.67;;
75645;SDS011;64237;52.438;13.240;2023-02-15T06:15:12;42.10;;;13.40;;
75645;SDS011;64237;52.438;13.240;2023-02-15T06:17:40;43.90;;;13.48;;
75645;SDS011;64237;52.438;13.240;2023-02-15T06:20:06;36.22;;;12.00;;
75645;SDS011;64237;52.438;13.240;2023-02-15T06:22:33;33.08;;;12.07;;
75645;SDS011;64237;52.438;13.240;2023-02-15T06:24:58;38.17;;;12.55;;
75645;SDS011;64237;52.438;13.240;2023-02-15T06:27:23;34.47;;;11.70;;
75645;SDS011;64237;52.438;13.240;2023-02-15T06:29:49;32.00;;;11.43;;
75645;SDS011;64237;52.438;13.240;2023-02-15T06:32:14;35.92;;;11.50;;
75645;SDS011;64237;52.438;13.240;2023-02-15T06:34:39;31.13;;;11.00;;
75645;SDS011;64237;52.438;13.240;2023-02-15T06:37:05;30.40;;;10.23;;
75645;SDS011;64237;52.438;13.240;2023-02-15T06:39:30;33.87;;;10.87;;
75645;SDS011;64237;52.438;13.240;2023-02-15T06:41:57;29.80;;;10.63;;
75645;SDS011;64237;52.438;13.240;2023-02-15T06:44:22;32.83;;;11.00;;
75645;SDS011;64237;52.438;13.240;2023-02-15T06:46:47;34.53;;;11.30;;
75645;SDS011;64237;52.438;13.240;2023-02-15T06:49:13;32.37;;;10.50;;
75645;SDS011;64237;52.438;13.240;2023-02-15T06:51:38;34.10;;;11.03;;
75645;SDS011;64237;52.438;13.240;2023-02-15T06:54:03;32.23;;;10.83;;
75645;SDS011;64237;52.438;13.240;2023-02-15T06:56:29;31.13;;;11.43;;
75645;SDS011;64237;52.438;13.240;2023-02-15T06:58:54;26.92;;;9.20;;
75645;SDS011;64237;52.438;13.240;2023-02-15T07:01:20;31.40;;;9.75;;
75645;SDS011;64237;52.438;13.240;2023-02-15T07:03:45;29.07;;;10.80;;
75645;SDS011;64237;52.438;13.240;2023-02-15T07:06:10;34.33;;;10.90;;
75645;SDS011;64237;52.438;13.240;2023-02-15T07:08:36;32.50;;;11.52;;
75645;SDS011;64237;52.438;13.240;2023-02-15T07:11:03;31.35;;;10.35;;
75645;SDS011;64237;52.438;13.240;2023-02-15T07:13:48;28.58;;;9.73;;
75645;SDS011;64237;52.438;13.240;2023-02-15T07:16:14;27.30;;;10.35;;
75645;SDS011;64237;52.438;13.240;2023-02-15T07:18:39;28.58;;;10.38;;
75645;SDS011;64237;52.438;13.240;2023-02-15T07:21:05;29.80;;;10.65;;
75645;SDS011;64237;52.438;13.240;2023-02-15T07:23:35;23.15;;;9.10;;
75645;SDS011;64237;52.438;13.240;2023-02-15T07:26:00;30.00;;;10.40;;
75645;SDS011;64237;52.438;13.240;2023-02-15T07:28:26;27.48;;;8.57;;
75645;SDS011;64237;52.438;13.240;2023-02-15T07:30:52;29.70;;;10.02;;
75645;SDS011;64237;52.438;13.240;2023-02-15T07:33:17;31.05;;;10.13;;
75645;SDS011;64237;52.438;13.240;2023-02-15T07:38:24;30.90;;;10.63;;
75645;SDS011;64237;52.438;13.240;2023-02-15T07:40:51;29.02;;;9.95;;
75645;SDS011;64237;52.438;13.240;2023-02-15T07:43:16;28.25;;;10.13;;
75645;SDS011;64237;52.438;13.240;2023-02-15T07:45:42;30.60;;;10.43;;
75645;SDS011;64237;52.438;13.240;2023-02-15T07:48:08;28.85;;;9.57;;
75645;SDS011;64237;52.438;13.240;2023-02-15T07:50:33;27.17;;;10.90;;
75645;SDS011;64237;52.438;13.240;2023-02-15T07:53:02;26.13;;;10.02;;
75645;SDS011;64237;52.438;13.240;2023-02-15T07:55:28;27.20;;;9.60;;
75645;SDS011;64237;52.438;13.240;2023-02-15T07:57:53;28.33;;;10.57;;
75645;SDS011;64237;52.438;13.240;2023-02-15T08:00:19;33.17;;;11.05;;
75645;SDS011;64237;52.438;13.240;2023-02-15T08:02:53;32.08;;;10.80;;
75645;SDS011;64237;52.438;13.240;2023-02-15T08:05:39;31.60;;;11.23;;
75645;SDS011;64237;52.438;13.240;2023-02-15T08:08:08;29.60;;;10.32;;
75645;SDS011;64237;52.438;13.240;2023-02-15T08:11:01;33.90;;;11.35;;
75645;SDS011;64237;52.438;13.240;2023-02-15T08:13:50;35.65;;;10.60;;
75645;SDS011;64237;52.438;13.240;2023-02-15T08:19:04;29.52;;;10.63;;
75645;SDS011;64237;52.438;13.240;2023-02-15T08:21:30;26.65;;;9.98;;
75645;SDS011;64237;52.438;13.240;2023-02-15T08:23:56;30.00;;;10.30;;
75645;SDS011;64237;52.438;13.240;2023-02-15T08:26:23;24.00;;;9.00;;
75645;SDS011;64237;52.438;13.240;2023-02-15T08:28:50;29.63;;;9.73;;
75645;SDS011;64237;52.438;13.240;2023-02-15T08:31:16;25.85;;;9.02;;
75645;SDS011;64237;52.438;13.240;2023-02-15T08:33:42;28.48;;;9.93;;
75645;SDS011;64237;52.438;13.240;2023-02-15T08:36:10;22.98;;;9.57;;
75645;SDS011;64237;52.438;13.240;2023-02-15T08:38:38;30.42;;;10.15;;
75645;SDS011;64237;52.438;13.240;2023-02-15T08:41:15;29.58;;;10.25;;
75645;SDS011;64237;52.438;13.240;2023-02-15T08:43:41;25.80;;;10.43;;
75645;SDS011;64237;52.438;13.240;2023-02-15T08:46:07;23.95;;;9.82;;
75645;SDS011;64237;52.438;13.240;2023-02-15T08:48:33;27.48;;;9.63;;
75645;SDS011;64237;52.438;13.240;2023-02-15T08:50:58;29.13;;;9.85;;
75645;SDS011;64237;52.438;13.240;2023-02-15T08:53:30;25.48;;;9.93;;
75645;SDS011;64237;52.438;13.240;2023-02-15T08:55:56;25.25;;;9.48;;
75645;SDS011;64237;52.438;13.240;2023-02-15T08:58:22;26.35;;;9.35;;
75645;SDS011;64237;52.438;13.240;2023-02-15T09:00:48;27.33;;;9.65;;
75645;SDS011;64237;52.438;13.240;2023-02-15T09:03:13;26.30;;;8.87;;
75645;SDS011;64237;52.438;13.240;2023-02-15T09:05:38;26.23;;;9.53;;
75645;SDS011;64237;52.438;13.240;2023-02-15T09:08:04;25.90;;;9.00;;
75645;SDS011;64237;52.438;13.240;2023-02-15T09:10:29;27.70;;;10.25;;
75645;SDS011;64237;52.438;13.240;2023-02-15T09:12:54;26.48;;;8.95;;
75645;SDS011;64237;52.438;13.240;2023-02-15T09:15:20;27.67;;;9.47;;
75645;SDS011;64237;52.438;13.240;2023-02-15T09:17:45;27.70;;;10.17;;
75645;SDS011;64237;52.438;13.240;2023-02-15T09:20:10;31.07;;;10.97;;
75645;SDS011;64237;52.438;13.240;2023-02-15T09:22:36;29.65;;;9.40;;
75645;SDS011;64237;52.438;13.240;2023-02-15T09:25:01;29.60;;;10.57;;
75645;SDS011;64237;52.438;13.240;2023-02-15T09:27:26;29.40;;;10.60;;
75645;SDS011;64237;52.438;13.240;2023-02-15T09:29:52;29.47;;;10.67;;
75645;SDS011;64237;52.438;13.240;2023-02-15T09:32:17;31.85;;;10.65;;
75645;SDS011;64237;52.438;13.240;2023-02-15T09:34:42;27.73;;;10.35;;
75645;SDS011;64237;52.438;13.240;2023-02-15T09:37:08;30.65;;;10.55;;
75645;SDS011;64237;52.438;13.240;2023-02-15T09:39:33;28.45;;;9.95;;
75645;SDS011;64237;52.438;13.240;2023-02-15T09:50:52;29.73;;;10.88;;
75645;SDS011;64237;52.438;13.240;2023-02-15T09:53:37;26.55;;;9.23;;
75645;SDS011;64237;52.438;13.240;2023-02-15T10:01:51;30.48;;;10.02;;
75645;SDS011;64237;52.438;13.240;2023-02-15T10:13:21;27.95;;;10.82;;
75645;SDS011;64237;52.438;13.240;2023-02-15T10:21:22;31.58;;;12.25;;
75645;SDS011;64237;52.438;13.240;2023-02-15T10:24:21;33.95;;;12.23;;
75645;SDS011;64237;52.438;13.240;2023-02-15T10:26:43;36.42;;;11.35;;
75645;SDS011;64237;52.438;13.240;2023-02-15T10:29:20;30.92;;;11.60;;
75645;SDS011;64237;52.438;13.240;2023-02-15T10:31:54;29.00;;;10.55;;
75645;SDS011;64237;52.438;13.240;2023-02-15T10:37:23;31.95;;;11.60;;
75645;SDS011;64237;52.438;13.240;2023-02-15T10:49:03;35.85;;;12.23;;
75645;SDS011;64237;52.438;13.240;2023-02-15T10:54:22;38.25;;;13.10;;
75645;SDS011;64237;52.438;13.240;2023-02-15T10:57:26;31.67;;;11.20;;
75645;SDS011;64237;52.438;13.240;2023-02-15T11:05:24;30.90;;;12.32;;
75645;SDS011;64237;52.438;13.240;2023-02-15T11:07:52;39.08;;;14.18;;
75645;SDS011;64237;52.438;13.240;2023-02-15T11:12:48;31.95;;;13.27;;
75645;SDS011;64237;52.438;13.240;2023-02-15T11:15:16;33.53;;;13.13;;
75645;SDS011;64237;52.438;13.240;2023-02-15T11:17:49;31.02;;;12.25;;
75645;SDS011;64237;52.438;13.240;2023-02-15T11:20:25;33.78;;;12.95;;
75645;SDS011;64237;52.438;13.240;2023-02-15T11:22:56;33.78;;;12.90;;
75645;SDS011;64237;52.438;13.240;2023-02-15T11:27:55;29.13;;;12.38;;
75645;SDS011;64237;52.438;13.240;2023-02-15T11:30:40;32.45;;;11.73;;
75645;SDS011;64237;52.438;13.240;2023-02-15T11:33:20;29.38;;;12.88;;
75645;SDS011;64237;52.438;13.240;2023-02-15T11:36:13;32.03;;;12.05;;
75645;SDS011;64237;52.438;13.240;2023-02-15T11:38:42;32.63;;;12.63;;
75645;SDS011;64237;52.438;13.240;2023-02-15T11:43:49;27.23;;;11.57;;
75645;SDS011;64237;52.438;13.240;2023-02-15T11:46:22;26.90;;;11.27;;
75645;SDS011;64237;52.438;13.240;2023-02-15T11:48:47;27.90;;;11.35;;
75645;SDS011;64237;52.438;13.240;2023-02-15T11:51:14;28.85;;;11.32;;
75645;SDS011;64237;52.438;13.240;2023-02-15T11:53:41;26.17;;;11.00;;
75645;SDS011;64237;52.438;13.240;2023-02-15T11:56:19;25.05;;;12.18;;
75645;SDS011;64237;52.438;13.240;2023-02-15T11:59:00;26.13;;;11.73;;
75645;SDS011;64237;52.438;13.240;2023-02-15T12:02:02;26.38;;;11.82;;
75645;SDS011;64237;52.438;13.240;2023-02-15T12:06:55;26.75;;;10.82;;
75645;SDS011;64237;52.438;13.240;2023-02-15T12:09:35;25.58;;;11.35;;
75645;SDS011;64237;52.438;13.240;2023-02-15T12:14:48;23.33;;;11.02;;
75645;SDS011;64237;52.438;13.240;2023-02-15T12:17:15;25.40;;;11.68;;
75645;SDS011;64237;52.438;13.240;2023-02-15T12:19:41;25.75;;;11.73;;
75645;SDS011;64237;52.438;13.240;2023-02-15T12:22:45;23.25;;;11.13;;
75645;SDS011;64237;52.438;13.240;2023-02-15T12:25:02;25.08;;;11.68;;
75645;SDS011;64237;52.438;13.240;2023-02-15T12:27:44;23.33;;;11.13;;
75645;SDS011;64237;52.438;13.240;2023-02-15T12:30:31;26.23;;;11.50;;
75645;SDS011;64237;52.438;13.240;2023-02-15T12:33:17;23.98;;;11.50;;
75645;SDS011;64237;52.438;13.240;2023-02-15T12:40:40;23.92;;;10.80;;
75645;SDS011;64237;52.438;13.240;2023-02-15T12:43:08;22.67;;;10.75;;
75645;SDS011;64237;52.438;13.240;2023-02-15T12:45:50;23.98;;;10.65;;
75645;SDS011;64237;52.438;13.240;2023-02-15T12:48:16;25.27;;;11.70;;
75645;SDS011;64237;52.438;13.240;2023-02-15T12:50:45;25.92;;;11.57;;
75645;SDS011;64237;52.438;13.240;2023-02-15T12:55:49;23.23;;;11.18;;
75645;SDS011;64237;52.438;13.240;2023-02-15T12:58:20;24.38;;;11.45;;
75645;SDS011;64237;52.438;13.240;2023-02-15T13:00:48;22.73;;;11.68;;
75645;SDS011;64237;52.438;13.240;2023-02-15T13:03:29;23.67;;;10.75;;
75645;SDS011;64237;52.438;13.240;2023-02-15T13:05:55;18.83;;;10.02;;
75645;SDS011;64237;52.438;13.240;2023-02-15T13:08:33;20.42;;;10.27;;
75645;SDS011;64237;52.438;13.240;2023-02-15T13:11:06;20.38;;;9.95;;
75645;SDS011;64237;52.438;13.240;2023-02-15T13:19:02;23.63;;;10.55;;
75645;SDS011;64237;52.438;13.240;2023-02-15T13:21:32;21.48;;;9.77;;
75645;SDS011;64237;52.438;13.240;2023-02-15T13:24:06;20.58;;;9.27;;
75645;SDS011;64237;52.438;13.240;2023-02-15T13:26:40;18.98;;;8.70;;
75645;SDS011;64237;52.438;13.240;2023-02-15T13:29:12;21.70;;;9.00;;
75645;SDS011;64237;52.438;13.240;2023-02-15T13:31:46;19.15;;;9.23;;
75645;SDS011;64237;52.438;13.240;2023-02-15T13:34:34;18.15;;;9.00;;
75645;SDS011;64237;52.438;13.240;2023-02-15T13:37:17;21.08;;;9.05;;
75645;SDS011;64237;52.438;13.240;2023-02-15T13:42:29;19.65;;;8.18;;
75645;SDS011;64237;52.438;13.240;2023-02-15T13:48:13;19.33;;;8.88;;
75645;SDS011;64237;52.438;13.240;2023-02-15T13:50:53;17.63;;;8.13;;
75645;SDS011;64237;52.438;13.240;2023-02-15T13:56:57;16.98;;;8.05;;
75645;SDS011;64237;52.438;13.240;2023-02-15T14:01:44;17.65;;;7.93;;
75645;SDS011;64237;52.438;13.240;2023-02-15T14:07:26;16.48;;;7.05;;
75645;SDS011;64237;52.438;13.240;2023-02-15T14:10:21;17.50;;;7.38;;
75645;SDS011;64237;52.438;13.240;2023-02-15T14:16:03;15.55;;;7.10;;
75645;SDS011;64237;52.438;13.240;2023-02-15T14:26:45;15.10;;;6.05;;
75645;SDS011;64237;52.438;13.240;2023-02-15T14:31:51;15.50;;;6.65;;
75645;SDS011;64237;52.438;13.240;2023-02-15T14:34:22;14.52;;;6.38;;
75645;SDS011;64237;52.438;13.240;2023-02-15T14:36:50;15.23;;;6.55;;
75645;SDS011;64237;52.438;13.240;2023-02-15T14:39:22;15.30;;;7.00;;
75645;SDS011;64237;52.438;13.240;2023-02-15T14:42:15;15.02;;;6.97;;
75645;SDS011;64237;52.438;13.240;2023-02-15T14:44:52;15.10;;;6.35;;
75645;SDS011;64237;52.438;13.240;2023-02-15T14:47:26;16.63;;;6.93;;
75645;SDS011;64237;52.438;13.240;2023-02-15T14:49:58;15.93;;;6.55;;
75645;SDS011;64237;52.438;13.240;2023-02-15T14:52:25;14.60;;;6.55;;
75645;SDS011;64237;52.438;13.240;2023-02-15T14:54:54;14.13;;;6.32;;
75645;SDS011;64237;52.438;13.240;2023-02-15T14:57:21;15.05;;;6.45;;
75645;SDS011;64237;52.438;13.240;2023-02-15T15:04:59;15.25;;;5.78;;
75645;SDS011;64237;52.438;13.240;2023-02-15T15:12:42;12.98;;;5.85;;
75645;SDS011;64237;52.438;13.240;2023-02-15T15:15:11;11.82;;;4.80;;
75645;SDS011;64237;52.438;13.240;2023-02-15T15:18:10;9.50;;;4.90;;
75645;SDS011;64237;52.438;13.240;2023-02-15T15:21:11;10.55;;;4.50;;
75645;SDS011;64237;52.438;13.240;2023-02-15T15:32:43;9.13;;;4.43;;
75645;SDS011;64237;52.438;13.240;2023-02-15T15:36:01;11.73;;;4.90;;
75645;SDS011;64237;52.438;13.240;2023-02-15T15:41:18;14.32;;;4.88;;
75645;SDS011;64237;52.438;13.240;2023-02-15T15:49:20;12.15;;;4.68;;
75645;SDS011;64237;52.438;13.240;2023-02-15T15:51:46;10.55;;;4.30;;
75645;SDS011;64237;52.438;13.240;2023-02-15T15:54:17;9.82;;;4.40;;
75645;SDS011;64237;52.438;13.240;2023-02-15T15:56:48;12.50;;;5.03;;
75645;SDS011;64237;52.438;13.240;2023-02-15T15:59:22;11.10;;;4.28;;
75645;SDS011;64237;52.438;13.240;2023-02-15T16:01:50;13.25;;;5.68;;
75645;SDS011;64237;52.438;13.240;2023-02-15T16:04:27;12.25;;;4.80;;
75645;SDS011;64237;52.438;13.240;2023-02-15T16:06:55;11.38;;;4.63;;
75645;SDS011;64237;52.438;13.240;2023-02-15T16:09:38;10.15;;;4.32;;
75645;SDS011;64237;52.438;13.240;2023-02-15T16:12:03;12.57;;;4.53;;
75645;SDS011;64237;52.438;13.240;2023-02-15T16:14:37;9.25;;;4.35;;
75645;SDS011;64237;52.438;13.240;2023-02-15T16:17:05;11.05;;;4.40;;
75645;SDS011;64237;52.438;13.240;2023-02-15T16:19:37;16.52;;;5.57;;
75645;SDS011;64237;52.438;13.240;2023-02-15T16:22:07;11.63;;;4.80;;
75645;SDS011;64237;52.438;13.240;2023-02-15T16:27:36;13.35;;;4.85;;
75645;SDS011;64237;52.438;13.240;2023-02-15T16:33:12;9.57;;;4.45;;
75645;SDS011;64237;52.438;13.240;2023-02-15T16:35:53;10.95;;;4.80;;
75645;SDS011;64237;52.438;13.240;2023-02-15T16:38:21;10.27;;;4.28;;
75645;SDS011;64237;52.438;13.240;2023-02-15T16:41:08;12.38;;;4.97;;
75645;SDS011;64237;52.438;13.240;2023-02-15T16:43:36;12.43;;;4.80;;
75645;SDS011;64237;52.438;13.240;2023-02-15T16:46:04;11.23;;;4.20;;
75645;SDS011;64237;52.438;13.240;2023-02-15T16:48:38;13.75;;;5.25;;
75645;SDS011;64237;52.438;13.240;2023-02-15T16:51:06;13.60;;;5.18;;
75645;SDS011;64237;52.438;13.240;2023-02-15T16:53:32;13.77;;;4.78;;
75645;SDS011;64237;52.438;13.240;2023-02-15T16:55:58;16.00;;;5.68;;
75645;SDS011;64237;52.438;13.240;2023-02-15T16:58:29;12.75;;;4.95;;
75645;SDS011;64237;52.438;13.240;2023-02-15T17:01:01;10.45;;;5.13;;
75645;SDS011;64237;52.438;13.240;2023-02-15T17:03:27;10.35;;;5.00;;
75645;SDS011;64237;52.438;13.240;2023-02-15T17:06:01;13.70;;;5.47;;
75645;SDS011;64237;52.438;13.240;2023-02-15T17:13:23;10.80;;;4.80;;
75645;SDS011;64237;52.438;13.240;2023-02-15T17:18:24;10.48;;;5.45;;
75645;SDS011;64237;52.438;13.240;2023-02-15T17:20:57;13.75;;;5.18;;
75645;SDS011;64237;52.438;13.240;2023-02-15T17:23:30;14.85;;;6.18;;
75645;SDS011;64237;52.438;13.240;2023-02-15T17:25:57;12.63;;;5.30;;
75645;SDS011;64237;52.438;13.240;2023-02-15T17:28:26;17.70;;;6.35;;
75645;SDS011;64237;52.438;13.240;2023-02-15T17:30:55;13.43;;;5.35;;